Louis Cristal — 9HA2978 — position and weather

sailwx.info

Track history (hours):
 
Tides and Currents Weather Stations Pressure Air Temp Water Temp Dewpoint Dewpoint Depression Visibility Wind Speed Wind Dir Waves Ship Positions

Louis Cristal

Last reported at 2015-Apr-17 19:33 UTC. Time now 2015-Apr-18 04:58 UTC.
Position N 40°01' E 026°08'.

Length 162 m; draft 6 m.

Type: Passenger vessel. MMSI: 229001000.

Date/timePositionNaut miles runAvg speedWind from/ knotsBaromVisibWave heightAir tempDewpointWater temp
2015-Apr-17 19:33N 40°01' E 026°08'15617.1
2015-Apr-17 10:23N 37°50' E 024°18'  
2015-Apr-15 01:33N 36°25' E 014°46'1817.7
2015-Apr-15 00:33N 36°27' E 014°25'1817.8
2015-Apr-14 23:33N 36°33' E 014°04'1817.5
2015-Apr-14 22:33N 36°39' E 013°43'1817.8
2015-Apr-14 21:33N 36°44' E 013°22'1818.3
2015-Apr-14 20:33N 36°50' E 013°01'3618.2
2015-Apr-14 18:33N 37°03' E 012°18'1817.7
2015-Apr-14 17:33N 37°09' E 011°57'1817.6
2015-Apr-14 16:33N 37°14' E 011°36'1818.0
2015-Apr-14 15:33N 37°20' E 011°14'1918.0
2015-Apr-14 14:30N 37°25' E 010°51'1817.6
2015-Apr-14 13:30N 37°31' E 010°30'1516.3
2015-Apr-14 12:33N 37°34' E 010°11'2317.7
2015-Apr-14 11:17N 37°37' E 009°43'1317.9
2015-Apr-14 10:32N 37°39' E 009°26'14620.3
2015-Apr-14 03:21N 37°24' E 006°23'1 0.9
2015-Apr-14 02:18N 37°24' E 006°22'1617.6
2015-Apr-14 01:22N 37°21' E 006°01'1417.3
2015-Apr-14 00:33N 37°20' E 005°44'1717.2
2015-Apr-13 23:33N 37°17' E 005°22'5626.2
2015-Apr-13 21:24N 37°09' E 004°12'4 4.6
2015-Apr-13 20:33N 37°09' E 004°17'1717.2
2015-Apr-13 19:33N 37°06' E 003°56'1717.2
2015-Apr-13 18:33N 37°04' E 003°35'1717.2
2015-Apr-13 17:33N 37°01' E 003°13'1717.1
2015-Apr-13 16:33N 36°59' E 002°52'1716.8
2015-Apr-13 15:33N 36°57' E 002°31'1616.3
2015-Apr-13 14:33N 36°54' E 002°11'1616.5
2015-Apr-13 13:33N 36°51' E 001°51'2218.1
2015-Apr-13 12:21N 36°48' E 001°24'3616.9
2015-Apr-13 10:13N 36°42' E 000°39'1117.2
2015-Apr-13 09:33N 36°41' E 000°25'3517.7
2015-Apr-13 07:33N 36°35' W 000°18'1917.2
2015-Apr-13 06:27N 36°33' W 000°42'1516.6
2015-Apr-13 05:33N 36°31' W 001°00'20315.3
2015-Apr-12 16:17N 36°00' W 005°09'1216.3
2015-Apr-12 15:33N 35°58' W 005°23'64216.8
2015-Apr-11 01:16N 28°35' W 014°33'1216.8
2015-Apr-11 00:33N 28°26' W 014°43'1616.5
2015-Apr-10 23:33N 28°13' W 014°53'1413.9
2015-Apr-10 22:33N 28°08' W 015°08'1514.6
2015-Apr-10 21:33N 28°07' W 015°25'1 1.2
2015-Apr-10 20:32N 28°08' W 015°25'0 0.0
2015-Apr-10 19:32N 28°08' W 015°25'0 0.0
2015-Apr-10 18:23N 28°08' W 015°25'0 0.0
2015-Apr-10 17:23N 28°08' W 015°25'0 0.0
2015-Apr-10 16:23N 28°08' W 015°25'0 0.0
2015-Apr-10 15:26N 28°08' W 015°25'0 0.0
2015-Apr-10 14:26N 28°08' W 015°25'0 0.0
2015-Apr-10 13:26N 28°08' W 015°25'0 0.0
2015-Apr-10 12:29N 28°08' W 015°25'0 0.0
2015-Apr-10 11:32N 28°08' W 015°25'3 2.8
2015-Apr-10 10:33N 28°07' W 015°23'1616.5
2015-Apr-10 09:33N 28°04' W 015°05'1313.3
2015-Apr-10 08:33N 27°51' W 015°02'1716.8
2015-Apr-10 07:33N 27°42' W 015°18'  
Track history (hours):
 
Tides and Currents Weather Stations Pressure Air Temp Water Temp Dewpoint Dewpoint Depression Visibility Wind Speed Wind Dir Waves Ship Positions

Louis Cristal

Last reported at 2015-Apr-17 19:33 UTC. Time now 2015-Apr-18 04:58 UTC.
Position N 40°01' E 026°08'.

Length 162 m; draft 6 m.

Type: Passenger vessel. MMSI: 229001000.

Date/timePositionNaut miles runAvg speedWind from/ knotsBaromVisibWave heightAir tempDewpointWater temp
2015-Apr-17 19:33N 40°01' E 026°08'15617.1
2015-Apr-17 10:23N 37°50' E 024°18'  
2015-Apr-15 01:33N 36°25' E 014°46'1817.7
2015-Apr-15 00:33N 36°27' E 014°25'1817.8
2015-Apr-14 23:33N 36°33' E 014°04'1817.5
2015-Apr-14 22:33N 36°39' E 013°43'1817.8
2015-Apr-14 21:33N 36°44' E 013°22'1818.3
2015-Apr-14 20:33N 36°50' E 013°01'3618.2
2015-Apr-14 18:33N 37°03' E 012°18'1817.7
2015-Apr-14 17:33N 37°09' E 011°57'1817.6
2015-Apr-14 16:33N 37°14' E 011°36'1818.0
2015-Apr-14 15:33N 37°20' E 011°14'1918.0
2015-Apr-14 14:30N 37°25' E 010°51'1817.6
2015-Apr-14 13:30N 37°31' E 010°30'1516.3
2015-Apr-14 12:33N 37°34' E 010°11'2317.7
2015-Apr-14 11:17N 37°37' E 009°43'1317.9
2015-Apr-14 10:32N 37°39' E 009°26'14620.3
2015-Apr-14 03:21N 37°24' E 006°23'1 0.9
2015-Apr-14 02:18N 37°24' E 006°22'1617.6
2015-Apr-14 01:22N 37°21' E 006°01'1417.3
2015-Apr-14 00:33N 37°20' E 005°44'1717.2
2015-Apr-13 23:33N 37°17' E 005°22'5626.2
2015-Apr-13 21:24N 37°09' E 004°12'4 4.6
2015-Apr-13 20:33N 37°09' E 004°17'1717.2
2015-Apr-13 19:33N 37°06' E 003°56'1717.2
2015-Apr-13 18:33N 37°04' E 003°35'1717.2
2015-Apr-13 17:33N 37°01' E 003°13'1717.1
2015-Apr-13 16:33N 36°59' E 002°52'1716.8
2015-Apr-13 15:33N 36°57' E 002°31'1616.3
2015-Apr-13 14:33N 36°54' E 002°11'1616.5
2015-Apr-13 13:33N 36°51' E 001°51'2218.1
2015-Apr-13 12:21N 36°48' E 001°24'3616.9
2015-Apr-13 10:13N 36°42' E 000°39'1117.2
2015-Apr-13 09:33N 36°41' E 000°25'3517.7
2015-Apr-13 07:33N 36°35' W 000°18'1917.2
2015-Apr-13 06:27N 36°33' W 000°42'1516.6
2015-Apr-13 05:33N 36°31' W 001°00'20315.3
2015-Apr-12 16:17N 36°00' W 005°09'1216.3
2015-Apr-12 15:33N 35°58' W 005°23'64216.8
2015-Apr-11 01:16N 28°35' W 014°33'1216.8
2015-Apr-11 00:33N 28°26' W 014°43'1616.5
2015-Apr-10 23:33N 28°13' W 014°53'1413.9
2015-Apr-10 22:33N 28°08' W 015°08'1514.6
2015-Apr-10 21:33N 28°07' W 015°25'1 1.2
2015-Apr-10 20:32N 28°08' W 015°25'0 0.0
2015-Apr-10 19:32N 28°08' W 015°25'0 0.0
2015-Apr-10 18:23N 28°08' W 015°25'0 0.0
2015-Apr-10 17:23N 28°08' W 015°25'0 0.0
2015-Apr-10 16:23N 28°08' W 015°25'0 0.0
2015-Apr-10 15:26N 28°08' W 015°25'0 0.0
2015-Apr-10 14:26N 28°08' W 015°25'0 0.0
2015-Apr-10 13:26N 28°08' W 015°25'0 0.0
2015-Apr-10 12:29N 28°08' W 015°25'0 0.0
2015-Apr-10 11:32N 28°08' W 015°25'3 2.8
2015-Apr-10 10:33N 28°07' W 015°23'1616.5
2015-Apr-10 09:33N 28°04' W 015°05'1313.3
2015-Apr-10 08:33N 27°51' W 015°02'1716.8
2015-Apr-10 07:33N 27°42' W 015°18'  

Dump ship's entire track history